Time;durP1;ratioP1;P1;durP2;ratioP2;P2;SDS_P1;SDS_P2;PMS_P1;PMS_P2;Temp;Humidity;BMP_temperature;BMP_pressure;BME280_temperature;BME280_humidity;BME280_pressure;Samples;Min_cycle;Max_cycle;Signal;HPM_P1;HPM_P2
2021/01/25 00:01:46;;;;;;;12.75;7.65;;;5.30;99.90;;;;;;1896046;74;21556;-85
2021/01/25 00:04:13;;;;;;;12.88;7.67;;;5.30;99.90;;;;;;1899640;74;21169;-85
2021/01/25 00:06:41;;;;;;;11.50;7.87;;;5.30;99.90;;;;;;1896574;74;21332;-86
2021/01/25 00:09:09;;;;;;;14.15;8.00;;;5.20;99.90;;;;;;1886563;74;21065;-85
2021/01/25 00:11:36;;;;;;;15.23;7.17;;;5.20;99.90;;;;;;1895811;74;21171;-86
2021/01/25 00:14:04;;;;;;;12.20;7.87;;;5.20;99.90;;;;;;1893602;74;21114;-85
2021/01/25 00:16:31;;;;;;;15.13;7.90;;;5.30;99.90;;;;;;1898634;74;22214;-86
2021/01/25 00:18:59;;;;;;;13.25;7.55;;;5.30;99.90;;;;;;1895176;74;21039;-85
2021/01/25 00:21:27;;;;;;;14.60;7.58;;;5.30;99.90;;;;;;1895445;74;21151;-84
2021/01/25 00:23:54;;;;;;;14.38;8.70;;;5.30;99.90;;;;;;1893076;74;21237;-84
2021/01/25 00:26:21;;;;;;;13.35;7.72;;;5.30;99.90;;;;;;1894824;74;21146;-84
2021/01/25 00:28:49;;;;;;;14.50;7.60;;;5.30;99.90;;;;;;1899233;74;21128;-84
2021/01/25 00:31:16;;;;;;;13.05;7.42;;;5.30;99.90;;;;;;1897485;74;21128;-84
2021/01/25 00:33:44;;;;;;;15.20;7.58;;;5.20;99.90;;;;;;1899312;74;21118;-85
2021/01/25 00:36:11;;;;;;;9.90;7.12;;;5.00;99.90;;;;;;1898184;74;21826;-85
2021/01/25 00:38:39;;;;;;;13.98;7.58;;;5.10;99.90;;;;;;1897545;74;21109;-85
2021/01/25 00:41:06;;;;;;;17.42;7.37;;;5.10;99.90;;;;;;1897559;74;21211;-85
2021/01/25 00:43:34;;;;;;;13.88;8.08;;;5.20;99.90;;;;;;1896454;74;21134;-85
2021/01/25 00:46:01;;;;;;;11.25;7.87;;;5.20;99.90;;;;;;1895085;74;21112;-86
2021/01/25 00:48:29;;;;;;;15.05;7.55;;;5.00;99.90;;;;;;1895421;74;21131;-85
2021/01/25 00:50:56;;;;;;;12.03;7.60;;;5.10;99.90;;;;;;1896406;74;21086;-85
2021/01/25 00:53:24;;;;;;;15.30;8.38;;;5.10;99.90;;;;;;1898032;74;21148;-83
2021/01/25 00:55:52;;;;;;;12.73;8.25;;;5.10;99.90;;;;;;1890728;74;21070;-84
2021/01/25 00:58:19;;;;;;;11.97;7.53;;;5.10;99.90;;;;;;1890388;74;21571;-84
2021/01/25 01:00:47;;;;;;;12.15;7.58;;;5.20;99.90;;;;;;1898363;74;21166;-83
2021/01/25 01:03:14;;;;;;;12.70;7.67;;;5.10;99.90;;;;;;1901405;74;21141;-84
2021/01/25 01:05:42;;;;;;;17.17;8.65;;;5.10;99.90;;;;;;1894371;74;21107;-84
2021/01/25 01:08:09;;;;;;;15.48;9.15;;;5.10;99.90;;;;;;1893383;74;21117;-84
2021/01/25 01:10:37;;;;;;;10.78;8.50;;;5.10;99.90;;;;;;1896128;74;21751;-84
2021/01/25 01:13:04;;;;;;;17.82;9.43;;;5.10;99.90;;;;;;1893183;75;21599;-84
2021/01/25 01:15:32;;;;;;;16.62;9.80;;;5.00;99.90;;;;;;1892255;74;21117;-84
2021/01/25 01:17:59;;;;;;;20.70;9.78;;;5.00;99.90;;;;;;1895683;74;21122;-84
2021/01/25 01:20:27;;;;;;;14.60;9.55;;;5.00;99.90;;;;;;1891391;74;21163;-84
2021/01/25 01:22:54;;;;;;;20.55;9.80;;;5.10;99.90;;;;;;1895026;74;21469;-84
2021/01/25 01:25:22;;;;;;;16.17;9.83;;;5.00;99.90;;;;;;1896610;74;21523;-83
2021/01/25 01:27:49;;;;;;;16.80;10.53;;;4.90;99.90;;;;;;1896180;74;21118;-83
2021/01/25 01:30:17;;;;;;;17.55;10.30;;;5.00;99.90;;;;;;1897379;74;21075;-83
2021/01/25 01:32:45;;;;;;;15.32;10.58;;;5.00;99.90;;;;;;1893313;74;21182;-83
2021/01/25 01:35:12;;;;;;;14.90;9.90;;;5.10;99.90;;;;;;1898087;74;21167;-83
2021/01/25 01:37:40;;;;;;;14.47;10.32;;;5.10;99.90;;;;;;1896601;75;21359;-83
2021/01/25 01:40:11;;;;;;;18.85;10.20;;;5.20;99.90;;;;;;1890941;74;21195;-83
2021/01/25 01:42:39;;;;;;;17.75;11.53;;;5.10;99.90;;;;;;1891462;74;21191;-83
2021/01/25 01:45:09;;;;;;;19.90;11.90;;;5.10;99.90;;;;;;1896465;74;21059;-83
2021/01/25 01:47:38;;;;;;;21.02;11.08;;;5.10;99.90;;;;;;1894152;74;21121;-84
2021/01/25 01:50:08;;;;;;;19.57;12.33;;;5.00;99.90;;;;;;1896898;74;21105;-84
2021/01/25 01:52:36;;;;;;;15.60;11.33;;;4.90;99.90;;;;;;1904703;74;21170;-84
2021/01/25 01:55:04;;;;;;;18.32;12.65;;;4.80;99.90;;;;;;1899595;74;21189;-84
2021/01/25 01:57:34;;;;;;;24.47;12.50;;;4.70;99.90;;;;;;1891819;74;21202;-83
2021/01/25 02:00:06;;;;;;;21.68;13.15;;;4.70;99.90;;;;;;1894117;74;21582;-82
2021/01/25 02:02:33;;;;;;;20.55;12.68;;;4.70;99.90;;;;;;1892810;74;21191;-81
2021/01/25 02:05:02;;;;;;;25.30;13.05;;;4.70;99.90;;;;;;1886901;74;21058;-82
2021/01/25 02:07:31;;;;;;;23.52;13.22;;;4.80;99.90;;;;;;1894859;74;21157;-83
2021/01/25 02:10:00;;;;;;;19.40;12.73;;;4.90;99.90;;;;;;1896035;74;21134;-81
2021/01/25 02:12:28;;;;;;;19.37;12.58;;;4.90;99.90;;;;;;1898229;74;21161;-82
2021/01/25 02:14:58;;;;;;;22.80;12.88;;;4.90;99.90;;;;;;1899920;74;21247;-82
2021/01/25 02:17:26;;;;;;;22.50;13.88;;;4.90;99.90;;;;;;1897310;74;21580;-83
2021/01/25 02:20:26;;;;;;;22.67;14.78;;;4.90;99.90;;;;;;1895701;74;21098;-81
2021/01/25 02:23:17;;;;;;;19.70;13.78;;;4.90;99.90;;;;;;1895009;74;22122;-82
2021/01/25 02:26:06;;;;;;;21.93;13.62;;;4.80;99.90;;;;;;1895406;74;21015;-82
2021/01/25 02:28:33;;;;;;;24.20;14.40;;;4.80;99.90;;;;;;1899112;74;21555;-81
2021/01/25 02:31:06;;;;;;;23.05;14.25;;;4.80;99.90;;;;;;1895790;74;21256;-82
2021/01/25 02:33:35;;;;;;;22.58;15.20;;;4.80;99.90;;;;;;1893451;74;21668;-81
2021/01/25 02:36:03;;;;;;;27.42;14.95;;;4.90;99.90;;;;;;1899692;74;21281;-83
2021/01/25 02:38:31;;;;;;;26.90;14.73;;;4.80;99.90;;;;;;1900184;74;21529;-83
2021/01/25 02:41:00;;;;;;;22.95;15.65;;;4.90;99.90;;;;;;1892274;74;21182;-82
2021/01/25 02:43:29;;;;;;;23.83;15.88;;;5.00;99.90;;;;;;1893871;74;21099;-82
2021/01/25 02:45:57;;;;;;;23.27;16.60;;;4.90;99.90;;;;;;1897695;74;21183;-83
2021/01/25 02:48:26;;;;;;;26.52;17.50;;;4.90;99.90;;;;;;1892244;74;21066;-82
2021/01/25 02:50:53;;;;;;;29.02;17.30;;;4.80;99.90;;;;;;1890744;75;21197;-83
2021/01/25 02:53:21;;;;;;;27.67;16.95;;;4.80;99.90;;;;;;1894417;75;21062;-83
2021/01/25 02:55:50;;;;;;;23.67;16.82;;;4.80;99.90;;;;;;1892772;74;21195;-82
2021/01/25 02:58:19;;;;;;;25.77;17.60;;;4.70;99.90;;;;;;1892983;74;21136;-82
2021/01/25 03:00:50;;;;;;;27.20;17.20;;;4.70;99.90;;;;;;1897568;74;21162;-82
2021/01/25 03:03:20;;;;;;;26.35;18.37;;;4.60;99.90;;;;;;1894929;74;21100;-83
2021/01/25 03:05:48;;;;;;;28.50;18.23;;;4.60;99.90;;;;;;1894716;74;21132;-83
2021/01/25 03:08:15;;;;;;;27.17;18.15;;;4.70;99.90;;;;;;1894645;74;21118;-83
2021/01/25 03:10:43;;;;;;;30.75;18.27;;;4.70;99.90;;;;;;1893731;74;21105;-84
2021/01/25 03:13:10;;;;;;;28.67;18.48;;;4.70;99.90;;;;;;1898464;74;21077;-83
2021/01/25 03:15:40;;;;;;;29.27;19.37;;;4.80;99.90;;;;;;1893091;74;22100;-81
2021/01/25 03:18:07;;;;;;;29.12;19.17;;;4.70;99.90;;;;;;1889039;75;21148;-84
2021/01/25 03:20:35;;;;;;;28.20;20.23;;;4.80;99.90;;;;;;1892701;74;21077;-84
2021/01/25 03:23:02;;;;;;;31.90;18.82;;;4.70;99.90;;;;;;1900431;74;21086;-82
2021/01/25 03:25:30;;;;;;;36.75;20.25;;;4.70;99.90;;;;;;1897239;74;21784;-82
2021/01/25 03:27:57;;;;;;;25.02;19.30;;;4.70;99.90;;;;;;1900811;74;21051;-81
2021/01/25 03:30:25;;;;;;;30.32;20.65;;;4.80;99.90;;;;;;1899107;74;21114;-83
2021/01/25 03:32:52;;;;;;;28.95;20.65;;;4.80;99.90;;;;;;1903563;74;21098;-82
2021/01/25 03:35:20;;;;;;;29.23;18.75;;;4.60;99.90;;;;;;1894410;74;20998;-82
2021/01/25 03:37:47;;;;;;;34.43;21.17;;;4.60;99.90;;;;;;1895212;74;21160;-83
2021/01/25 03:40:15;;;;;;;30.90;20.00;;;4.60;99.90;;;;;;1900612;74;21132;-83
2021/01/25 03:42:42;;;;;;;26.87;20.10;;;4.70;99.90;;;;;;1895825;74;21137;-82
2021/01/25 03:45:10;;;;;;;32.20;20.82;;;4.70;99.90;;;;;;1894900;74;21133;-83
2021/01/25 03:47:38;;;;;;;29.72;21.87;;;4.70;99.90;;;;;;1897263;74;21128;-82
2021/01/25 03:50:06;;;;;;;26.97;20.08;;;4.70;99.90;;;;;;1891235;74;21098;-82
2021/01/25 03:52:33;;;;;;;30.68;20.20;;;4.80;99.90;;;;;;1896504;74;21158;-81
2021/01/25 03:55:01;;;;;;;31.68;21.12;;;4.70;99.90;;;;;;1896356;74;21077;-82
2021/01/25 03:57:28;;;;;;;34.75;21.93;;;4.70;99.90;;;;;;1896348;74;21177;-80
2021/01/25 03:59:56;;;;;;;29.25;21.93;;;4.70;99.90;;;;;;1894342;74;21777;-81
2021/01/25 04:02:23;;;;;;;36.15;23.00;;;4.70;99.90;;;;;;1897480;74;21113;-81
2021/01/25 04:04:51;;;;;;;34.88;22.20;;;4.70;99.90;;;;;;1895057;74;21178;-81
2021/01/25 04:07:18;;;;;;;33.53;22.65;;;4.60;99.90;;;;;;1893042;74;21534;-82
2021/01/25 04:09:46;;;;;;;34.20;22.13;;;4.60;99.90;;;;;;1896533;74;21609;-83
2021/01/25 04:12:14;;;;;;;39.48;24.20;;;4.50;99.90;;;;;;1898974;74;21614;-83
2021/01/25 04:14:41;;;;;;;35.28;22.98;;;4.40;99.90;;;;;;1892302;74;21113;-84
2021/01/25 04:17:09;;;;;;;37.38;24.23;;;4.40;99.90;;;;;;1894057;74;21157;-85
2021/01/25 04:19:37;;;;;;;35.83;23.02;;;4.40;99.90;;;;;;1890789;74;21129;-82
2021/01/25 04:22:04;;;;;;;36.35;22.90;;;4.50;99.90;;;;;;1898127;74;21142;-85
2021/01/25 04:24:32;;;;;;;33.48;22.40;;;4.50;99.90;;;;;;1893988;75;22490;-84
2021/01/25 04:26:59;;;;;;;33.28;23.67;;;4.60;99.90;;;;;;1895871;74;21148;-83
2021/01/25 04:29:27;;;;;;;37.55;24.55;;;4.70;99.90;;;;;;1897232;74;21149;-83
2021/01/25 04:31:54;;;;;;;33.13;24.57;;;4.60;99.90;;;;;;1897808;74;21038;-83
2021/01/25 04:34:22;;;;;;;34.13;24.07;;;4.70;99.90;;;;;;1894221;75;21093;-83
2021/01/25 04:36:49;;;;;;;35.10;24.92;;;4.70;99.90;;;;;;1891467;74;21098;-83
2021/01/25 04:39:17;;;;;;;37.10;23.73;;;4.70;99.90;;;;;;1895275;74;21148;-83
2021/01/25 04:41:44;;;;;;;35.55;25.35;;;4.80;99.90;;;;;;1895175;74;21618;-83
2021/01/25 04:44:12;;;;;;;37.55;24.65;;;4.80;99.90;;;;;;1891184;74;21118;-83
2021/01/25 04:46:39;;;;;;;37.00;25.72;;;4.80;99.90;;;;;;1896307;74;21133;-83
2021/01/25 04:49:08;;;;;;;35.00;24.32;;;4.80;99.90;;;;;;1897340;74;21195;-83
2021/01/25 04:51:36;;;;;;;37.23;26.10;;;4.70;99.90;;;;;;1893722;74;21118;-84
2021/01/25 04:54:06;;;;;;;39.53;26.55;;;4.70;99.90;;;;;;1895799;74;21089;-83
2021/01/25 04:56:35;;;;;;;37.28;27.75;;;4.70;99.90;;;;;;1894351;74;21643;-83
2021/01/25 04:59:03;;;;;;;42.43;26.12;;;4.70;99.90;;;;;;1894583;74;21743;-83
2021/01/25 05:01:31;;;;;;;41.02;27.58;;;4.70;99.90;;;;;;1899080;74;21121;-83
2021/01/25 05:03:58;;;;;;;40.65;26.30;;;4.60;99.90;;;;;;1897055;74;21118;-82
2021/01/25 05:06:26;;;;;;;47.38;27.48;;;4.70;99.90;;;;;;1895421;74;21235;-83
2021/01/25 05:08:53;;;;;;;36.28;26.35;;;4.60;99.90;;;;;;1896323;74;21074;-82
2021/01/25 05:11:21;;;;;;;40.33;26.85;;;4.70;99.90;;;;;;1902566;74;21035;-83
2021/01/25 05:13:48;;;;;;;37.38;26.90;;;4.80;99.90;;;;;;1899472;74;21133;-86
2021/01/25 05:16:18;;;;;;;41.23;27.95;;;4.70;99.90;;;;;;1900990;74;21140;-82
2021/01/25 05:18:46;;;;;;;39.48;26.55;;;4.80;99.90;;;;;;1895712;74;21106;-82
2021/01/25 05:21:14;;;;;;;37.70;27.85;;;4.70;99.90;;;;;;1891716;74;22449;-85
2021/01/25 05:23:42;;;;;;;37.45;27.05;;;4.70;99.90;;;;;;1898772;74;21780;-85
2021/01/25 05:26:10;;;;;;;42.00;27.37;;;4.70;99.90;;;;;;1899289;74;21136;-84
2021/01/25 05:28:43;;;;;;;37.83;27.13;;;4.70;99.90;;;;;;1900864;74;21213;-80
2021/01/25 05:31:25;;;;;;;42.53;27.93;;;4.70;99.90;;;;;;1898570;74;21392;-80
2021/01/25 05:33:53;;;;;;;42.88;29.10;;;4.70;99.90;;;;;;1896534;74;21050;-80
2021/01/25 05:36:26;;;;;;;40.05;27.02;;;4.50;99.90;;;;;;1900437;74;21150;-78
2021/01/25 05:38:54;;;;;;;39.18;27.55;;;4.20;99.90;;;;;;1894858;74;21132;-80
2021/01/25 05:41:22;;;;;;;39.80;27.77;;;4.30;99.90;;;;;;1893724;74;21697;-79
2021/01/25 05:43:51;;;;;;;42.10;28.50;;;4.40;99.90;;;;;;1897953;74;21129;-79
2021/01/25 05:46:19;;;;;;;41.53;28.05;;;4.40;99.90;;;;;;1896589;75;21166;-79
2021/01/25 05:48:59;;;;;;;42.62;29.07;;;4.50;99.90;;;;;;1896349;75;21116;-83
2021/01/25 05:51:29;;;;;;;39.98;28.80;;;4.50;99.90;;;;;;1893361;74;21151;-81
2021/01/25 05:53:57;;;;;;;45.35;29.55;;;4.50;99.90;;;;;;1891667;75;21176;-80
2021/01/25 05:56:24;;;;;;;39.98;27.87;;;4.50;99.90;;;;;;1891773;75;21110;-79
2021/01/25 05:58:52;;;;;;;41.65;28.07;;;4.50;99.90;;;;;;1898268;74;21110;-79
2021/01/25 06:01:22;;;;;;;47.95;30.15;;;4.50;99.90;;;;;;1903716;74;21155;-79
2021/01/25 06:03:50;;;;;;;43.70;29.10;;;4.50;99.90;;;;;;1908783;74;21133;-79
2021/01/25 06:06:26;;;;;;;42.20;29.05;;;4.40;99.90;;;;;;1898929;74;21098;-84
2021/01/25 06:09:20;;;;;;;40.03;28.25;;;4.40;99.90;;;;;;1895401;74;21117;-83
2021/01/25 06:11:47;;;;;;;46.15;29.30;;;4.40;99.90;;;;;;1895881;74;21745;-80
2021/01/25 06:14:24;;;;;;;42.60;29.42;;;4.30;99.90;;;;;;1899460;74;21144;-81
2021/01/25 06:16:52;;;;;;;41.33;29.95;;;4.40;99.90;;;;;;1896540;74;21042;-80
2021/01/25 06:19:26;;;;;;;40.08;28.87;;;4.30;99.90;;;;;;1867527;75;21239;-81
2021/01/25 06:21:55;;;;;;;45.38;29.27;;;4.30;99.90;;;;;;1912395;74;21624;-84
2021/01/25 06:24:25;;;;;;;46.08;30.52;;;4.30;99.90;;;;;;1912211;74;21133;-84
2021/01/25 06:26:55;;;;;;;43.85;29.77;;;4.20;99.90;;;;;;1907600;74;21129;-84
2021/01/25 06:29:24;;;;;;;45.63;31.62;;;4.20;99.90;;;;;;1909526;74;21218;-83
2021/01/25 06:31:56;;;;;;;44.23;31.20;;;4.20;99.90;;;;;;1906573;74;21480;-79
2021/01/25 06:34:25;;;;;;;48.02;31.52;;;4.20;99.90;;;;;;1891955;74;21140;-80
2021/01/25 06:36:53;;;;;;;53.45;32.83;;;4.20;99.90;;;;;;1900737;74;21588;-80
2021/01/25 06:39:28;;;;;;;52.35;32.33;;;4.20;99.90;;;;;;1900293;75;21159;-81
2021/01/25 06:42:06;;;;;;;47.78;32.75;;;4.20;99.90;;;;;;1902937;74;21108;-80
2021/01/25 06:44:35;;;;;;;45.67;29.95;;;4.20;99.90;;;;;;1901856;74;21080;-80
2021/01/25 06:47:05;;;;;;;43.60;28.30;;;4.30;99.90;;;;;;1902778;74;21187;-85
2021/01/25 06:49:33;;;;;;;45.67;30.12;;;4.30;99.90;;;;;;1903496;74;21136;-82
2021/01/25 06:52:00;;;;;;;44.90;31.33;;;4.20;99.90;;;;;;1898343;75;21110;-82
2021/01/25 06:54:28;;;;;;;51.53;34.00;;;4.20;99.90;;;;;;1903609;75;21628;-82
2021/01/25 06:57:01;;;;;;;50.23;33.13;;;4.10;99.90;;;;;;1904919;75;21222;-82
2021/01/25 06:59:33;;;;;;;48.78;33.00;;;4.10;99.90;;;;;;1903416;74;22252;-81
2021/01/25 07:02:02;;;;;;;52.25;34.43;;;4.20;99.90;;;;;;1890433;74;21129;-82
2021/01/25 07:04:30;;;;;;;53.90;34.75;;;4.20;99.90;;;;;;1891121;74;21144;-81
2021/01/25 07:06:59;;;;;;;54.85;34.80;;;4.20;99.90;;;;;;1896842;74;21184;-80
2021/01/25 07:09:34;;;;;;;52.40;33.75;;;4.20;99.90;;;;;;1896512;74;21435;-79
2021/01/25 07:12:04;;;;;;;48.48;32.42;;;4.20;99.90;;;;;;1898914;74;21132;-80
2021/01/25 07:14:33;;;;;;;52.90;34.55;;;4.20;99.90;;;;;;1900873;74;21086;-80
2021/01/25 07:17:01;;;;;;;53.80;34.48;;;4.20;99.90;;;;;;1905656;74;21137;-81
2021/01/25 07:19:29;;;;;;;51.85;35.63;;;4.20;99.90;;;;;;1894148;74;21214;-78
2021/01/25 07:21:57;;;;;;;48.78;34.20;;;4.20;99.90;;;;;;1895938;75;21146;-79
2021/01/25 07:24:26;;;;;;;53.40;36.58;;;4.20;99.90;;;;;;1904604;74;21186;-79
2021/01/25 07:26:55;;;;;;;53.92;36.15;;;4.20;99.90;;;;;;1901764;74;21153;-79
2021/01/25 07:29:24;;;;;;;59.08;36.05;;;4.20;99.90;;;;;;1902358;74;21682;-82
2021/01/25 07:31:53;;;;;;;54.05;35.05;;;4.10;99.90;;;;;;1905520;74;21245;-83
2021/01/25 07:34:21;;;;;;;55.00;35.17;;;4.10;99.90;;;;;;1902911;74;21103;-82
2021/01/25 07:36:48;;;;;;;57.13;35.73;;;4.20;99.90;;;;;;1903051;74;21093;-82
2021/01/25 07:39:18;;;;;;;54.35;34.27;;;4.10;99.90;;;;;;1900582;74;21103;-82
2021/01/25 07:41:46;;;;;;;53.15;35.17;;;4.10;99.90;;;;;;1909681;74;21156;-82
2021/01/25 07:44:15;;;;;;;51.70;35.80;;;4.20;99.90;;;;;;1903928;74;21891;-82
2021/01/25 07:46:45;;;;;;;54.03;35.23;;;4.20;99.90;;;;;;1862466;75;21243;-82
2021/01/25 07:49:13;;;;;;;55.85;34.78;;;4.30;99.90;;;;;;1900933;74;21643;-81
2021/01/25 07:51:43;;;;;;;54.40;36.30;;;4.20;99.90;;;;;;1900803;74;21163;-82
2021/01/25 07:54:16;;;;;;;56.13;37.65;;;4.20;99.90;;;;;;1901729;74;21152;-82
2021/01/25 07:56:44;;;;;;;50.65;35.40;;;4.30;99.90;;;;;;1902099;74;21137;-82
2021/01/25 07:59:19;;;;;;;62.40;36.68;;;4.40;99.90;;;;;;1894437;74;21085;-82
2021/01/25 08:01:53;;;;;;;55.17;37.83;;;4.30;99.90;;;;;;1858335;75;21072;-83
2021/01/25 08:04:23;;;;;;;53.63;35.85;;;4.50;99.90;;;;;;1860333;75;21168;-84
2021/01/25 08:06:53;;;;;;;51.20;35.17;;;4.40;99.90;;;;;;1906618;74;21092;-79
2021/01/25 08:09:21;;;;;;;52.43;36.88;;;4.40;99.90;;;;;;1885273;74;21400;-81
2021/01/25 08:11:50;;;;;;;55.90;35.88;;;4.50;99.90;;;;;;1888044;74;21163;-81
2021/01/25 08:14:20;;;;;;;56.85;36.68;;;4.40;99.90;;;;;;1899730;74;21641;-81
2021/01/25 08:16:57;;;;;;;53.90;34.70;;;4.50;99.90;;;;;;1903943;74;21145;-80
2021/01/25 08:19:30;;;;;;;56.42;35.50;;;4.60;99.90;;;;;;1899458;74;21107;-80
2021/01/25 08:22:12;;;;;;;53.85;36.75;;;4.50;99.90;;;;;;1904238;74;21183;-81
2021/01/25 08:24:39;;;;;;;54.85;36.73;;;4.40;99.90;;;;;;1905488;74;21576;-80
2021/01/25 08:27:15;;;;;;;54.23;36.17;;;4.30;99.90;;;;;;1903575;74;22486;-82
2021/01/25 08:29:45;;;;;;;57.93;36.90;;;4.40;99.90;;;;;;1905586;74;21140;-80
2021/01/25 08:32:25;;;;;;;51.85;35.05;;;4.40;99.90;;;;;;1888466;74;21291;-80
2021/01/25 08:35:01;;;;;;;50.65;36.17;;;4.40;99.90;;;;;;1892033;74;21125;-79
2021/01/25 08:37:31;;;;;;;52.17;35.40;;;4.50;99.90;;;;;;1888590;74;21141;-79
2021/01/25 08:40:01;;;;;;;49.98;36.55;;;4.60;99.90;;;;;;1890571;74;21116;-80
2021/01/25 08:42:35;;;;;;;53.75;36.63;;;4.80;99.90;;;;;;1888777;74;21132;-79
2021/01/25 08:45:08;;;;;;;58.45;36.88;;;4.90;99.90;;;;;;1891379;74;21054;-80
2021/01/25 08:47:36;;;;;;;49.23;35.10;;;4.90;99.90;;;;;;1903466;74;21131;-79
2021/01/25 08:50:06;;;;;;;52.80;35.20;;;5.00;99.90;;;;;;1889458;74;21111;-80
2021/01/25 08:52:43;;;;;;;52.05;35.75;;;5.10;99.90;;;;;;1904437;74;21127;-79
2021/01/25 08:55:26;;;;;;;50.15;34.10;;;5.20;99.90;;;;;;1898740;74;21634;-80
2021/01/25 08:57:54;;;;;;;53.73;35.03;;;5.10;99.90;;;;;;1899471;74;21158;-80
2021/01/25 09:00:28;;;;;;;50.25;34.63;;;5.30;99.90;;;;;;1903438;74;21109;-80
2021/01/25 09:03:06;;;;;;;54.10;33.25;;;5.50;99.90;;;;;;1905052;74;21151;-80
2021/01/25 09:05:34;;;;;;;49.08;32.65;;;5.50;99.90;;;;;;1859968;75;21585;-80
2021/01/25 09:08:01;;;;;;;48.45;31.80;;;5.60;99.90;;;;;;1905632;74;22249;-81
2021/01/25 09:10:29;;;;;;;46.77;32.70;;;5.60;99.90;;;;;;1900757;74;21186;-80
2021/01/25 09:12:56;;;;;;;47.67;33.50;;;5.70;99.90;;;;;;1902547;74;21014;-80
2021/01/25 09:15:26;;;;;;;47.58;33.55;;;5.80;99.90;;;;;;1906757;74;21183;-79
2021/01/25 09:17:57;;;;;;;47.80;32.25;;;6.00;99.90;;;;;;1887592;74;21246;-79
2021/01/25 09:20:26;;;;;;;45.80;32.42;;;6.00;99.90;;;;;;1887943;74;21065;-79
2021/01/25 09:22:53;;;;;;;49.85;32.55;;;5.90;99.90;;;;;;1885065;74;21568;-80
2021/01/25 09:25:22;;;;;;;45.50;32.42;;;6.00;99.90;;;;;;1893465;74;21115;-83
2021/01/25 09:27:51;;;;;;;51.75;32.35;;;6.00;99.90;;;;;;1884913;74;21125;-82
2021/01/25 09:30:19;;;;;;;47.45;31.68;;;6.10;99.90;;;;;;1854666;75;21218;-81
2021/01/25 09:32:47;;;;;;;49.45;31.93;;;6.30;99.90;;;;;;1891484;74;21174;-75
2021/01/25 09:35:16;;;;;;;44.23;30.15;;;6.50;99.90;;;;;;1859231;75;21097;-79
2021/01/25 09:37:45;;;;;;;45.98;31.12;;;6.60;99.90;;;;;;1906351;75;21223;-80
2021/01/25 09:40:13;;;;;;;43.85;30.35;;;6.70;99.90;;;;;;1901097;74;21172;-81
2021/01/25 09:42:41;;;;;;;51.05;29.45;;;6.70;99.90;;;;;;1902650;74;21203;-81
2021/01/25 09:45:11;;;;;;;42.33;30.23;;;6.80;99.90;;;;;;1902355;74;21199;-80
2021/01/25 09:47:38;;;;;;;46.20;30.20;;;6.80;99.90;;;;;;1893909;74;21246;-81
2021/01/25 09:50:10;;;;;;;40.03;29.55;;;6.90;99.90;;;;;;1892119;74;21113;-80
2021/01/25 09:52:36;;;;;;;48.87;29.25;;;7.00;99.90;;;;;;1904324;74;21109;-80
2021/01/25 09:55:03;;;;;;;40.88;28.40;;;7.10;99.90;;;;;;1888940;74;21137;-80
2021/01/25 09:57:31;;;;;;;41.70;28.32;;;7.10;99.90;;;;;;1904023;74;21152;-83
2021/01/25 09:59:58;;;;;;;42.62;29.05;;;7.10;99.90;;;;;;1901190;74;21105;-79
2021/01/25 10:02:26;;;;;;;40.70;28.12;;;7.30;99.90;;;;;;1909902;74;21109;-79
2021/01/25 10:04:53;;;;;;;40.23;26.20;;;7.50;99.90;;;;;;1903906;74;21227;-80
2021/01/25 10:07:21;;;;;;;43.25;28.10;;;7.60;99.90;;;;;;1887515;74;21174;-80
2021/01/25 10:09:54;;;;;;;45.23;26.97;;;7.80;99.90;;;;;;1889042;74;21113;-79
2021/01/25 10:12:17;;;;;;;38.28;26.60;;;7.90;99.90;;;;;;1888438;74;21148;-78
2021/01/25 10:14:45;;;;;;;40.90;26.80;;;8.00;99.90;;;;;;1894860;74;21171;-79
2021/01/25 10:17:12;;;;;;;36.30;25.90;;;8.00;99.90;;;;;;1903284;74;21222;-79
2021/01/25 10:19:40;;;;;;;42.50;27.00;;;8.10;99.90;;;;;;1902685;74;21144;-80
2021/01/25 10:22:07;;;;;;;40.83;25.43;;;8.00;99.90;;;;;;1889657;74;21608;-80
2021/01/25 10:24:35;;;;;;;38.23;26.57;;;7.90;99.90;;;;;;1885836;74;22329;-81
2021/01/25 10:27:03;;;;;;;35.85;25.32;;;7.90;99.90;;;;;;1891765;74;21136;-81
2021/01/25 10:29:30;;;;;;;37.63;26.07;;;7.90;99.90;;;;;;1897734;74;21050;-81
2021/01/25 10:31:58;;;;;;;44.70;27.37;;;7.80;99.90;;;;;;1892706;74;21129;-81
2021/01/25 10:34:26;;;;;;;41.00;27.20;;;7.80;99.90;;;;;;1900327;74;21115;-81
2021/01/25 10:36:53;;;;;;;35.17;25.88;;;7.80;99.90;;;;;;1907302;74;21132;-82
2021/01/25 10:39:21;;;;;;;37.65;25.15;;;7.90;99.90;;;;;;1905426;74;22348;-82
2021/01/25 10:41:48;;;;;;;32.98;23.87;;;8.10;99.90;;;;;;1905388;74;21531;-81
2021/01/25 10:44:17;;;;;;;33.58;23.83;;;8.10;99.90;;;;;;1904083;74;21625;-81
2021/01/25 10:46:46;;;;;;;35.78;22.98;;;8.10;99.90;;;;;;1906008;74;21236;-82
2021/01/25 10:49:13;;;;;;;36.77;23.73;;;8.20;99.90;;;;;;1909223;74;21134;-82
2021/01/25 10:51:41;;;;;;;36.08;23.38;;;8.30;99.90;;;;;;1903080;75;21159;-79
2021/01/25 10:54:09;;;;;;;35.80;23.12;;;8.50;99.90;;;;;;1908503;74;21857;-80
2021/01/25 10:56:36;;;;;;;35.60;22.65;;;8.40;99.90;;;;;;1904511;74;21168;-81
2021/01/25 10:59:06;;;;;;;33.23;20.95;;;8.50;99.90;;;;;;1914203;74;21094;-81
2021/01/25 11:01:34;;;;;;;29.98;20.50;;;8.50;99.90;;;;;;1891995;74;21112;-79
2021/01/25 11:04:01;;;;;;;31.05;19.95;;;8.40;99.90;;;;;;1892914;74;21107;-81
2021/01/25 11:06:28;;;;;;;27.67;18.48;;;8.40;99.90;;;;;;1889986;74;21156;-79
2021/01/25 11:08:56;;;;;;;28.62;19.62;;;8.40;99.90;;;;;;1890137;74;21632;-80
2021/01/25 11:11:23;;;;;;;27.25;18.85;;;8.40;99.90;;;;;;1895242;74;21386;-80
2021/01/25 11:13:51;;;;;;;29.87;19.07;;;8.60;99.90;;;;;;1885317;74;21062;-81
2021/01/25 11:16:19;;;;;;;34.60;18.98;;;8.70;99.90;;;;;;1889001;74;21077;-80
2021/01/25 11:18:48;;;;;;;21.90;15.65;;;8.80;99.90;;;;;;1889187;74;21042;-80
2021/01/25 11:21:15;;;;;;;21.27;15.25;;;8.80;99.90;;;;;;1859513;75;21173;-81
2021/01/25 11:23:43;;;;;;;24.05;14.95;;;8.90;99.90;;;;;;1858005;75;22005;-81
2021/01/25 11:26:10;;;;;;;21.02;14.43;;;8.80;99.90;;;;;;1885155;74;21214;-82
2021/01/25 11:28:38;;;;;;;26.30;15.28;;;9.00;99.90;;;;;;1887905;76;21170;-83
2021/01/25 11:31:07;;;;;;;21.87;15.05;;;9.20;99.90;;;;;;1884521;74;21179;-83
2021/01/25 11:33:35;;;;;;;22.75;15.43;;;9.30;99.90;;;;;;1876626;76;21228;-83
2021/01/25 11:36:02;;;;;;;22.80;14.15;;;9.40;99.90;;;;;;1882590;74;21164;-83
2021/01/25 11:38:31;;;;;;;17.87;12.70;;;9.50;99.90;;;;;;1886486;74;21158;-82
2021/01/25 11:40:59;;;;;;;20.90;13.15;;;9.80;99.90;;;;;;1884267;74;21291;-86
2021/01/25 11:43:27;;;;;;;17.90;12.45;;;9.90;99.90;;;;;;1881416;74;21183;-79
2021/01/25 11:45:54;;;;;;;16.73;11.85;;;10.00;99.90;;;;;;1881761;74;21164;-79
2021/01/25 11:48:23;;;;;;;17.37;11.28;;;10.30;99.90;;;;;;1873924;74;21133;-79
2021/01/25 11:50:52;;;;;;;16.48;11.55;;;10.40;99.90;;;;;;1880283;74;21198;-84
2021/01/25 11:53:20;;;;;;;19.48;12.90;;;10.60;99.90;;;;;;1880615;76;21218;-86
2021/01/25 11:55:48;;;;;;;17.35;11.57;;;10.90;99.90;;;;;;1884489;74;21176;-84
2021/01/25 11:58:15;;;;;;;19.77;10.88;;;11.20;99.90;;;;;;1881025;74;21222;-83
2021/01/25 12:00:43;;;;;;;20.70;10.93;;;11.60;99.90;;;;;;1883029;74;21419;-79
2021/01/25 12:03:10;;;;;;;16.40;11.20;;;11.90;99.90;;;;;;1877671;74;21093;-79
2021/01/25 12:05:38;;;;;;;14.85;9.58;;;12.00;99.90;;;;;;1880456;74;21117;-80
2021/01/25 12:08:05;;;;;;;13.22;9.35;;;12.20;99.90;;;;;;1883544;74;21108;-79
2021/01/25 12:10:35;;;;;;;15.23;9.05;;;12.40;99.90;;;;;;1880150;74;21086;-81
2021/01/25 12:13:02;;;;;;;17.67;8.95;;;12.60;99.60;;;;;;1861176;75;21591;-80
2021/01/25 12:15:29;;;;;;;15.68;9.98;;;12.70;99.10;;;;;;1887541;74;21089;-81
2021/01/25 12:17:57;;;;;;;15.63;9.70;;;12.60;99.10;;;;;;1903676;74;21105;-80
2021/01/25 12:20:24;;;;;;;17.20;11.55;;;12.80;98.80;;;;;;1898425;74;21763;-79
2021/01/25 12:22:52;;;;;;;18.80;11.20;;;13.10;98.10;;;;;;1908670;74;21613;-80
2021/01/25 12:25:19;;;;;;;12.18;8.75;;;13.20;97.80;;;;;;1907367;74;21101;-80
2021/01/25 12:27:49;;;;;;;10.78;7.80;;;13.30;97.00;;;;;;1896854;74;21395;-80
2021/01/25 12:30:16;;;;;;;13.48;8.33;;;13.00;96.60;;;;;;1886495;74;21747;-81
2021/01/25 12:32:45;;;;;;;13.00;9.50;;;12.70;97.60;;;;;;1888894;74;21100;-82
2021/01/25 12:35:14;;;;;;;11.70;8.18;;;12.40;97.90;;;;;;1891046;74;21084;-84
2021/01/25 12:37:46;;;;;;;11.12;8.10;;;13.10;98.50;;;;;;1861760;75;21120;-84
2021/01/25 12:40:11;;;;;;;12.55;6.85;;;14.10;96.40;;;;;;1901379;74;21612;-84
2021/01/25 12:42:39;;;;;;;11.95;7.58;;;15.50;93.50;;;;;;1904374;74;21086;-85
2021/01/25 12:45:08;;;;;;;10.70;7.37;;;15.90;91.80;;;;;;1897118;74;21540;-84
2021/01/25 12:47:35;;;;;;;13.30;7.70;;;15.40;91.20;;;;;;1902697;74;21222;-85